createdAt,value
2023-03-26T00:01:38.011Z,7.74
2023-03-26T00:04:08.090Z,7.71
2023-03-26T00:06:40.737Z,7.67
2023-03-26T00:09:11.532Z,7.63
2023-03-26T00:11:39.442Z,7.62
2023-03-26T00:14:07.288Z,7.61
2023-03-26T00:16:35.218Z,7.60
2023-03-26T00:19:03.799Z,7.57
2023-03-26T00:21:32.661Z,7.57
2023-03-26T00:24:05.955Z,7.54
2023-03-26T00:26:35.825Z,7.53
2023-03-26T00:29:05.253Z,7.56
2023-03-26T00:31:33.276Z,7.58
2023-03-26T00:34:04.409Z,7.59
2023-03-26T00:36:33.408Z,7.61
2023-03-26T00:39:02.504Z,7.63
2023-03-26T00:41:32.240Z,7.65
2023-03-26T00:44:01.397Z,7.69
2023-03-26T00:46:31.899Z,7.72
2023-03-26T00:49:01.891Z,7.73
2023-03-26T00:51:30.797Z,7.74
2023-03-26T00:53:59.395Z,7.74
2023-03-26T00:56:27.590Z,7.75
2023-03-26T00:58:55.515Z,7.77
2023-03-26T01:01:29.144Z,7.77
2023-03-26T01:04:21.064Z,7.80
2023-03-26T01:06:49.046Z,7.78
2023-03-26T01:09:23.524Z,7.80
2023-03-26T01:11:51.908Z,7.80
2023-03-26T01:14:26.329Z,7.81
2023-03-26T01:17:00.089Z,7.83
2023-03-26T01:19:46.453Z,7.80
2023-03-26T01:22:27.093Z,7.77
2023-03-26T01:24:57.587Z,7.79
2023-03-26T01:27:45.778Z,7.78
2023-03-26T01:30:35.052Z,7.77
2023-03-26T01:33:35.201Z,7.77
2023-03-26T01:36:34.560Z,7.72
2023-03-26T01:39:13.798Z,7.71
2023-03-26T01:42:07.531Z,7.73
2023-03-26T01:44:51.803Z,7.76
2023-03-26T01:47:20.776Z,7.76
2023-03-26T01:49:49.963Z,7.78
2023-03-26T01:52:22.589Z,7.79
2023-03-26T01:54:51.536Z,7.79
2023-03-26T01:57:36.266Z,7.83
2023-03-26T02:00:34.034Z,7.85
2023-03-26T02:03:21.034Z,7.84
2023-03-26T02:05:59.301Z,7.81
2023-03-26T02:08:44.061Z,7.82
2023-03-26T02:11:16.601Z,7.81
2023-03-26T02:13:46.864Z,7.85
2023-03-26T02:16:17.605Z,7.86
2023-03-26T02:18:47.631Z,7.85
2023-03-26T02:21:24.348Z,7.85
2023-03-26T02:24:04.270Z,7.85
2023-03-26T02:26:34.873Z,7.87
2023-03-26T02:29:03.460Z,7.88
2023-03-26T02:31:31.521Z,7.89
2023-03-26T02:33:59.519Z,7.89
2023-03-26T02:36:29.218Z,7.90
2023-03-26T02:38:59.090Z,7.92
2023-03-26T02:41:26.994Z,7.93
2023-03-26T02:43:54.828Z,7.92
2023-03-26T02:46:22.823Z,7.94
2023-03-26T02:48:51.244Z,7.95
2023-03-26T02:51:19.697Z,7.96
2023-03-26T02:53:48.772Z,7.96
2023-03-26T02:56:16.785Z,7.94
2023-03-26T02:58:44.705Z,7.94
2023-03-26T03:01:12.685Z,7.95
2023-03-26T03:03:40.637Z,7.95
2023-03-26T03:06:10.394Z,7.95
2023-03-26T03:08:38.374Z,7.96
2023-03-26T03:11:12.264Z,7.97
2023-03-26T03:13:43.310Z,7.96
2023-03-26T03:16:12.087Z,8.01
2023-03-26T03:18:39.982Z,8.00
2023-03-26T03:21:08.091Z,8.01
2023-03-26T03:23:36.367Z,8.02
2023-03-26T03:26:04.344Z,8.02
2023-03-26T03:28:32.572Z,8.03
2023-03-26T03:31:00.489Z,8.03
2023-03-26T03:33:28.437Z,8.02
2023-03-26T03:35:56.927Z,8.00
2023-03-26T03:38:25.022Z,7.99
2023-03-26T03:40:54.685Z,8.02
2023-03-26T03:43:22.620Z,8.05
2023-03-26T03:45:50.526Z,8.05
2023-03-26T03:48:20.176Z,8.04
2023-03-26T03:50:48.107Z,8.05
2023-03-26T03:53:17.828Z,8.04
2023-03-26T03:55:54.545Z,8.05
2023-03-26T03:58:29.378Z,8.07
2023-03-26T04:01:02.229Z,8.09
2023-03-26T04:03:33.962Z,8.09
2023-03-26T04:06:02.782Z,8.09
2023-03-26T04:08:31.557Z,8.10
2023-03-26T04:10:59.601Z,8.12
2023-03-26T04:13:27.601Z,8.12
2023-03-26T04:15:55.823Z,8.13
2023-03-26T04:18:24.662Z,8.13
2023-03-26T04:20:52.556Z,8.14
2023-03-26T04:23:20.794Z,8.14
2023-03-26T04:25:55.024Z,8.13
2023-03-26T04:29:02.572Z,8.13
2023-03-26T04:31:31.815Z,8.13
2023-03-26T04:34:19.750Z,8.13
2023-03-26T04:36:47.649Z,8.14
2023-03-26T04:39:15.585Z,8.12
2023-03-26T04:41:43.695Z,8.12
2023-03-26T04:44:13.098Z,8.13
2023-03-26T04:46:44.869Z,8.14
2023-03-26T04:49:12.904Z,8.16
2023-03-26T04:51:43.308Z,8.18
2023-03-26T04:54:14.007Z,8.19
2023-03-26T04:57:05.039Z,8.24
2023-03-26T04:59:36.594Z,8.29
2023-03-26T05:02:07.100Z,8.29
2023-03-26T05:04:38.044Z,8.31
2023-03-26T05:07:06.306Z,8.33
2023-03-26T05:09:34.468Z,8.33
2023-03-26T05:12:02.380Z,8.34
2023-03-26T05:14:30.373Z,8.34
2023-03-26T05:16:58.404Z,8.31
2023-03-26T05:19:26.386Z,8.31
2023-03-26T05:21:54.353Z,8.30
2023-03-26T05:24:22.383Z,8.30
2023-03-26T05:26:50.278Z,8.29
2023-03-26T05:29:19.281Z,8.28
2023-03-26T05:31:47.392Z,8.28
2023-03-26T05:34:15.706Z,8.31
2023-03-26T05:36:43.856Z,8.29
2023-03-26T05:39:12.106Z,8.26
2023-03-26T05:41:39.996Z,8.20
2023-03-26T05:44:07.930Z,8.14
2023-03-26T05:46:35.951Z,8.09
2023-03-26T05:49:03.903Z,8.04
2023-03-26T05:51:31.913Z,8.03
2023-03-26T05:53:59.996Z,7.96
2023-03-26T05:56:27.937Z,7.91
2023-03-26T05:58:58.156Z,7.88
2023-03-26T06:01:26.897Z,7.80
2023-03-26T06:03:54.887Z,7.74
2023-03-26T06:06:23.086Z,7.70
2023-03-26T06:09:01.708Z,7.68
2023-03-26T06:11:32.422Z,7.68
2023-03-26T06:14:01.661Z,7.65
2023-03-26T06:16:29.635Z,7.62
2023-03-26T06:18:58.072Z,7.64
2023-03-26T06:21:27.347Z,7.65
2023-03-26T06:23:56.018Z,7.64
2023-03-26T06:26:24.080Z,7.60
2023-03-26T06:28:51.989Z,7.60
2023-03-26T06:31:20.575Z,7.59
2023-03-26T06:33:50.009Z,7.57
2023-03-26T06:36:18.032Z,7.55
2023-03-26T06:38:46.008Z,7.56
2023-03-26T06:41:14.225Z,7.53
2023-03-26T06:43:42.167Z,7.49
2023-03-26T06:46:10.449Z,7.50
2023-03-26T06:48:38.681Z,7.47
2023-03-26T06:51:07.321Z,7.45
2023-03-26T06:56:05.349Z,7.36
2023-03-26T06:58:33.972Z,7.30
2023-03-26T07:01:01.930Z,7.26
2023-03-26T07:03:29.891Z,7.24
2023-03-26T07:05:57.970Z,7.23
2023-03-26T07:08:26.418Z,7.19
2023-03-26T07:10:54.624Z,7.21
2023-03-26T07:13:22.673Z,7.26
2023-03-26T07:15:50.861Z,7.26
2023-03-26T07:18:18.717Z,7.30
2023-03-26T07:20:47.789Z,7.33
2023-03-26T07:23:21.439Z,7.38
2023-03-26T07:25:49.889Z,7.43
2023-03-26T07:28:34.865Z,7.44
2023-03-26T07:31:05.529Z,7.46
2023-03-26T07:33:49.641Z,7.52
2023-03-26T07:36:33.230Z,7.54
2023-03-26T07:39:08.247Z,7.58
2023-03-26T07:42:00.035Z,7.63
2023-03-26T07:44:48.235Z,7.64
2023-03-26T07:47:30.225Z,7.66
2023-03-26T07:49:58.973Z,7.67
2023-03-26T07:52:28.277Z,7.66
2023-03-26T07:54:56.900Z,7.66
2023-03-26T07:57:54.839Z,7.64
2023-03-26T08:00:28.816Z,7.66
2023-03-26T08:03:05.754Z,7.65
2023-03-26T08:05:43.934Z,7.63
2023-03-26T08:08:20.932Z,7.63
2023-03-26T08:11:06.132Z,7.59
2023-03-26T08:13:40.482Z,7.54
2023-03-26T08:16:25.572Z,7.52
2023-03-26T08:19:06.101Z,7.53
2023-03-26T08:21:43.507Z,7.51
2023-03-26T08:24:28.487Z,7.54
2023-03-26T08:27:20.073Z,7.54
2023-03-26T08:30:15.899Z,7.54
2023-03-26T08:32:44.119Z,7.51
2023-03-26T08:35:15.741Z,7.49
2023-03-26T08:37:46.726Z,7.49
2023-03-26T08:40:21.097Z,7.49
2023-03-26T08:43:10.599Z,7.49
2023-03-26T08:45:49.215Z,7.49
2023-03-26T08:49:00.596Z,7.52
2023-03-26T08:52:13.118Z,7.60
2023-03-26T08:55:14.454Z,7.67
2023-03-26T08:57:57.884Z,7.79
2023-03-26T09:00:27.890Z,7.89
2023-03-26T09:03:13.092Z,8.03
2023-03-26T09:06:28.842Z,8.19
2023-03-26T09:09:19.011Z,8.34
2023-03-26T09:11:56.246Z,8.45
2023-03-26T09:14:24.060Z,8.50
2023-03-26T09:17:05.001Z,8.54
2023-03-26T09:19:54.036Z,8.59
2023-03-26T09:22:49.292Z,8.65
2023-03-26T09:25:19.996Z,8.72
2023-03-26T09:28:03.885Z,8.74
2023-03-26T09:30:38.755Z,8.86
2023-03-26T09:33:29.263Z,9.01
2023-03-26T09:36:21.085Z,9.17
2023-03-26T09:38:58.748Z,9.53
2023-03-26T09:42:08.281Z,9.95
2023-03-26T09:44:59.218Z,10.42
2023-03-26T09:48:22.805Z,10.41
2023-03-26T09:51:05.714Z,10.59
2023-03-26T09:54:08.089Z,10.59
2023-03-26T09:56:59.332Z,10.47
2023-03-26T10:00:03.554Z,10.21
2023-03-26T10:02:47.376Z,9.94
2023-03-26T10:05:29.200Z,9.77
2023-03-26T10:08:21.761Z,9.59
2023-03-26T10:11:00.384Z,9.58
2023-03-26T10:14:00.696Z,9.61
2023-03-26T10:16:56.659Z,9.63
2023-03-26T10:19:43.233Z,9.72
2023-03-26T10:22:38.948Z,9.79
2023-03-26T10:25:24.894Z,9.80
2023-03-26T10:28:20.270Z,9.85
2023-03-26T10:31:03.209Z,9.87
2023-03-26T10:33:43.092Z,9.83
2023-03-26T10:36:31.724Z,9.82
2023-03-26T10:39:39.272Z,9.78
2023-03-26T10:42:10.833Z,9.82
2023-03-26T10:45:00.301Z,9.83
2023-03-26T10:47:43.415Z,9.88
2023-03-26T10:50:36.361Z,9.92
2023-03-26T10:53:28.344Z,9.95
2023-03-26T10:56:04.168Z,9.94
2023-03-26T10:58:49.768Z,10.02
2023-03-26T11:02:08.741Z,10.12
2023-03-26T11:05:30.434Z,10.23
2023-03-26T11:08:31.466Z,10.28
2023-03-26T11:11:00.019Z,10.29
2023-03-26T11:13:47.497Z,10.35
2023-03-26T11:16:38.792Z,10.41
2023-03-26T11:19:32.820Z,10.44
2023-03-26T11:22:17.263Z,10.46
2023-03-26T11:24:53.242Z,10.57
2023-03-26T11:27:28.587Z,10.61
2023-03-26T11:30:17.111Z,10.69
2023-03-26T11:32:53.201Z,10.78
2023-03-26T11:35:47.069Z,10.81
2023-03-26T11:38:40.627Z,10.86
2023-03-26T11:41:24.080Z,10.82
2023-03-26T11:43:57.910Z,10.87
2023-03-26T11:46:28.565Z,10.88
2023-03-26T11:49:01.366Z,10.89
2023-03-26T11:51:35.369Z,10.93
2023-03-26T11:54:04.545Z,10.98
2023-03-26T11:57:05.968Z,10.98
2023-03-26T11:59:56.658Z,11.01
2023-03-26T12:02:30.376Z,11.08
2023-03-26T12:05:16.234Z,11.10
2023-03-26T12:07:58.508Z,11.16
2023-03-26T12:10:40.750Z,11.15
2023-03-26T12:13:30.078Z,11.25
2023-03-26T12:16:08.891Z,11.34
2023-03-26T12:18:38.470Z,11.40
2023-03-26T12:21:13.463Z,11.44
2023-03-26T12:23:53.791Z,11.44
2023-03-26T12:26:33.024Z,11.54
2023-03-26T12:29:08.684Z,11.64
2023-03-26T12:32:10.551Z,11.72
2023-03-26T12:34:40.853Z,11.87
2023-03-26T12:37:29.817Z,12.04
2023-03-26T12:40:27.054Z,12.19
2023-03-26T12:44:46.086Z,12.37
2023-03-26T12:46:58.905Z,12.51
2023-03-26T12:48:38.693Z,12.62
2023-03-26T12:51:36.308Z,12.71
2023-03-26T12:54:25.121Z,12.83
2023-03-26T12:57:23.714Z,12.91
2023-03-26T13:00:01.493Z,12.94
2023-03-26T13:02:51.132Z,13.01
2023-03-26T13:05:19.213Z,12.95
2023-03-26T13:07:47.208Z,12.81
2023-03-26T13:10:36.448Z,12.75
2023-03-26T13:13:22.982Z,12.72
2023-03-26T13:15:54.207Z,12.67
2023-03-26T13:18:59.892Z,12.62
2023-03-26T13:21:53.755Z,12.56
2023-03-26T13:24:36.095Z,12.54
2023-03-26T13:27:32.567Z,12.62
2023-03-26T13:30:15.445Z,12.63
2023-03-26T13:32:49.439Z,12.54
2023-03-26T13:35:23.322Z,12.36
2023-03-26T13:38:00.742Z,12.36
2023-03-26T13:40:50.288Z,12.40
2023-03-26T13:43:49.396Z,12.54
2023-03-26T13:46:38.148Z,12.57
2023-03-26T13:49:10.865Z,12.54
2023-03-26T13:51:41.343Z,12.52
2023-03-26T13:54:19.526Z,12.60
2023-03-26T13:56:53.714Z,12.71
2023-03-26T13:59:32.457Z,12.74
2023-03-26T14:02:10.047Z,12.78
2023-03-26T14:04:45.141Z,12.79
2023-03-26T14:07:23.821Z,12.80
2023-03-26T14:09:57.803Z,12.74
2023-03-26T14:12:55.443Z,12.70
2023-03-26T14:15:25.078Z,12.74
2023-03-26T14:18:17.680Z,12.80
2023-03-26T14:20:46.062Z,12.79
2023-03-26T14:23:45.347Z,12.76
2023-03-26T14:26:28.329Z,12.64
2023-03-26T14:29:31.608Z,12.44
2023-03-26T14:32:24.199Z,12.11
2023-03-26T14:35:07.679Z,11.77
2023-03-26T14:37:54.392Z,11.51
2023-03-26T14:40:27.944Z,11.32
2023-03-26T14:43:10.777Z,11.26
2023-03-26T14:46:00.617Z,11.14
2023-03-26T14:48:37.929Z,11.03
2023-03-26T14:51:50.581Z,10.97
2023-03-26T14:54:26.976Z,10.77
2023-03-26T14:57:30.324Z,10.14
2023-03-26T15:00:26.702Z,9.24
2023-03-26T15:03:11.315Z,8.76
2023-03-26T15:05:53.461Z,8.49
2023-03-26T15:08:38.974Z,8.31
2023-03-26T15:11:12.831Z,8.18
2023-03-26T15:14:17.757Z,8.06
2023-03-26T15:17:13.900Z,7.99
2023-03-26T15:19:58.786Z,7.77
2023-03-26T15:22:32.650Z,7.32
2023-03-26T15:25:20.397Z,6.97
2023-03-26T15:28:25.026Z,6.61
2023-03-26T15:31:32.284Z,6.38
2023-03-26T15:34:36.181Z,6.16
2023-03-26T15:37:24.237Z,5.92
2023-03-26T15:40:12.806Z,5.83
2023-03-26T15:43:21.484Z,5.73
2023-03-26T15:45:57.495Z,5.67
2023-03-26T15:48:35.774Z,5.65
2023-03-26T15:51:27.337Z,5.62
2023-03-26T15:54:10.801Z,5.62
2023-03-26T15:56:57.014Z,5.66
2023-03-26T15:59:55.739Z,5.71
2023-03-26T16:02:36.076Z,5.71
2023-03-26T16:05:32.562Z,5.75
2023-03-26T16:08:08.453Z,5.78
2023-03-26T16:10:43.285Z,5.84
2023-03-26T16:13:38.972Z,5.88
2023-03-26T16:16:08.380Z,5.91
2023-03-26T16:18:37.300Z,5.96
2023-03-26T16:21:31.299Z,6.00
2023-03-26T16:24:03.363Z,6.05
2023-03-26T16:26:46.728Z,6.12
2023-03-26T16:29:20.092Z,6.16
2023-03-26T16:32:18.209Z,6.22
2023-03-26T16:35:11.641Z,6.26
2023-03-26T16:37:51.277Z,6.29
2023-03-26T16:40:19.455Z,6.30
2023-03-26T16:42:56.318Z,6.31
2023-03-26T16:45:43.929Z,6.28
2023-03-26T16:48:36.371Z,6.22
2023-03-26T16:51:22.480Z,6.20
2023-03-26T16:54:21.395Z,6.16
2023-03-26T16:56:57.889Z,6.09
2023-03-26T16:59:41.131Z,5.98
2023-03-26T17:02:38.252Z,5.94
2023-03-26T17:05:09.194Z,5.83
2023-03-26T17:07:43.499Z,5.69
2023-03-26T17:10:22.019Z,5.57
2023-03-26T17:13:09.639Z,5.53
2023-03-26T17:15:43.546Z,5.49
2023-03-26T17:18:23.589Z,5.46
2023-03-26T17:21:19.344Z,5.44
2023-03-26T17:24:16.126Z,5.44
2023-03-26T17:27:10.037Z,5.41
2023-03-26T17:30:22.902Z,5.39
2023-03-26T17:33:01.102Z,5.40
2023-03-26T17:35:40.999Z,5.41
2023-03-26T17:38:32.312Z,5.39
2023-03-26T17:41:01.445Z,5.40
2023-03-26T17:43:37.802Z,5.42
2023-03-26T17:46:14.734Z,5.38
2023-03-26T17:48:48.348Z,5.35
2023-03-26T17:51:48.159Z,5.37
2023-03-26T17:54:45.327Z,5.34
2023-03-26T17:57:27.696Z,5.33
2023-03-26T18:00:00.935Z,5.35
2023-03-26T18:02:55.331Z,5.35
2023-03-26T18:05:26.669Z,5.34
2023-03-26T18:08:07.863Z,5.33
2023-03-26T18:10:47.763Z,5.31
2023-03-26T18:13:34.072Z,5.27
2023-03-26T18:16:18.709Z,5.27
2023-03-26T18:18:51.768Z,5.25
2023-03-26T18:21:40.872Z,5.25
2023-03-26T18:24:15.262Z,5.22
2023-03-26T18:27:12.532Z,5.24
2023-03-26T18:29:45.657Z,5.23
2023-03-26T18:32:13.531Z,5.21
2023-03-26T18:34:51.199Z,5.21
2023-03-26T18:37:25.796Z,5.17
2023-03-26T18:40:20.462Z,5.16
2023-03-26T18:42:54.454Z,5.12
2023-03-26T18:45:38.698Z,5.10
2023-03-26T18:48:12.731Z,5.06
2023-03-26T18:50:43.299Z,5.08
2023-03-26T18:53:19.535Z,5.07
2023-03-26T18:55:48.090Z,5.06
2023-03-26T18:58:24.030Z,5.05
2023-03-26T19:00:54.932Z,5.06
2023-03-26T19:03:25.561Z,5.07
2023-03-26T19:05:57.161Z,5.06
2023-03-26T19:08:26.508Z,5.06
2023-03-26T19:10:56.153Z,5.07
2023-03-26T19:13:24.784Z,5.10
2023-03-26T19:15:55.526Z,5.10
2023-03-26T19:18:26.712Z,5.11
2023-03-26T19:21:03.500Z,5.14
2023-03-26T19:23:39.175Z,5.14
2023-03-26T19:26:10.638Z,5.17
2023-03-26T19:28:50.288Z,5.20
2023-03-26T19:31:34.210Z,5.22
2023-03-26T19:34:06.276Z,5.27
2023-03-26T19:36:35.860Z,5.28
2023-03-26T19:39:11.771Z,5.33
2023-03-26T19:41:44.843Z,5.34
2023-03-26T19:44:30.310Z,5.36
2023-03-26T19:47:16.289Z,5.39
2023-03-26T19:49:58.926Z,5.39
2023-03-26T19:52:48.602Z,5.38
2023-03-26T19:55:25.429Z,5.36
2023-03-26T19:57:53.300Z,5.35
2023-03-26T20:00:21.417Z,5.35
2023-03-26T20:02:50.738Z,5.37
2023-03-26T20:05:24.600Z,5.39
2023-03-26T20:07:52.863Z,5.41
2023-03-26T20:10:20.859Z,5.45
2023-03-26T20:12:48.890Z,5.49
2023-03-26T20:15:25.758Z,5.49
2023-03-26T20:17:55.875Z,5.52
2023-03-26T20:20:26.061Z,5.55
2023-03-26T20:22:55.347Z,5.55
2023-03-26T20:25:29.982Z,5.58
2023-03-26T20:27:59.834Z,5.59
2023-03-26T20:33:12.939Z,5.67
2023-03-26T20:35:41.916Z,5.68
2023-03-26T20:38:10.779Z,5.69
2023-03-26T20:40:39.744Z,5.68
2023-03-26T20:43:13.580Z,5.70
2023-03-26T20:45:41.894Z,5.72
2023-03-26T20:48:13.184Z,5.73
2023-03-26T20:50:50.664Z,5.77
2023-03-26T20:53:20.214Z,5.75
2023-03-26T20:55:50.366Z,5.73
2023-03-26T20:58:31.154Z,5.70
2023-03-26T21:01:03.218Z,5.70
2023-03-26T21:03:31.195Z,5.68
2023-03-26T21:06:11.703Z,5.66
2023-03-26T21:08:40.062Z,5.68
2023-03-26T21:11:26.577Z,5.70
2023-03-26T21:14:04.959Z,5.70
2023-03-26T21:16:33.628Z,5.76
2023-03-26T21:19:02.199Z,5.79
2023-03-26T21:21:30.044Z,5.78
2023-03-26T21:24:26.201Z,5.79
2023-03-26T21:27:09.708Z,5.80
2023-03-26T21:29:38.610Z,5.77
2023-03-26T21:32:06.925Z,5.78
2023-03-26T21:34:37.634Z,5.78
2023-03-26T21:37:06.062Z,5.78
2023-03-26T21:39:34.532Z,5.75
2023-03-26T21:42:04.845Z,5.76
2023-03-26T21:44:34.776Z,5.69
2023-03-26T21:47:02.970Z,5.65
2023-03-26T21:49:31.207Z,5.64
2023-03-26T21:51:59.379Z,5.62
2023-03-26T21:54:30.764Z,5.59
2023-03-26T21:57:28.700Z,5.56
2023-03-26T22:00:17.587Z,5.50
2023-03-26T22:03:19.769Z,5.44
2023-03-26T22:06:06.314Z,5.42
2023-03-26T22:08:42.197Z,5.38
2023-03-26T22:11:12.550Z,5.36
2023-03-26T22:13:40.582Z,5.31
2023-03-26T22:16:10.854Z,5.30
2023-03-26T22:18:39.213Z,5.24
2023-03-26T22:21:07.317Z,5.24
2023-03-26T22:23:39.520Z,5.23
2023-03-26T22:26:07.777Z,5.19
2023-03-26T22:28:36.183Z,5.20
2023-03-26T22:31:09.892Z,5.21
2023-03-26T22:33:41.389Z,5.22
2023-03-26T22:36:22.100Z,5.22
2023-03-26T22:38:54.501Z,5.23
2023-03-26T22:41:23.603Z,5.22
2023-03-26T22:43:54.946Z,5.21
2023-03-26T22:46:24.145Z,5.19
2023-03-26T22:48:52.790Z,5.17
2023-03-26T22:51:20.679Z,5.14
2023-03-26T22:53:48.584Z,5.11
2023-03-26T22:56:17.164Z,5.08
2023-03-26T22:58:45.163Z,5.07
2023-03-26T23:01:18.942Z,5.05
2023-03-26T23:03:47.855Z,5.05
2023-03-26T23:06:16.696Z,5.03
2023-03-26T23:08:44.886Z,5.01
2023-03-26T23:11:18.261Z,5.00
2023-03-26T23:13:47.454Z,4.98
2023-03-26T23:16:17.485Z,4.97
2023-03-26T23:18:45.617Z,5.00
2023-03-26T23:21:22.696Z,4.99
2023-03-26T23:23:52.902Z,5.01
2023-03-26T23:26:20.849Z,5.01
2023-03-26T23:28:49.188Z,5.01
2023-03-26T23:31:17.063Z,5.03
2023-03-26T23:33:48.925Z,5.07
2023-03-26T23:36:19.209Z,5.07
2023-03-26T23:38:49.432Z,5.11
2023-03-26T23:41:20.122Z,5.12
2023-03-26T23:43:53.989Z,5.12
2023-03-26T23:46:31.475Z,5.14
2023-03-26T23:49:01.037Z,5.15
2023-03-26T23:51:31.403Z,5.20
2023-03-26T23:53:59.905Z,5.20
2023-03-26T23:56:36.868Z,5.25
2023-03-26T23:59:06.168Z,5.26
